createdAt,value
2022-09-06T00:01:12.148Z,2.83
2022-09-06T00:03:40.423Z,2.90
2022-09-06T00:06:10.127Z,3.50
2022-09-06T00:08:38.008Z,3.37
2022-09-06T00:11:06.139Z,3.03
2022-09-06T00:13:35.359Z,2.93
2022-09-06T00:16:08.278Z,3.10
2022-09-06T00:18:35.946Z,3.30
2022-09-06T00:21:03.692Z,2.87
2022-09-06T00:23:31.536Z,2.37
2022-09-06T00:26:03.998Z,3.13
2022-09-06T00:28:31.768Z,3.17
2022-09-06T00:31:08.278Z,3.10
2022-09-06T00:33:36.234Z,3.10
2022-09-06T00:36:04.201Z,3.23
2022-09-06T00:38:32.147Z,2.87
2022-09-06T00:40:59.781Z,3.23
2022-09-06T00:43:27.474Z,3.23
2022-09-06T00:45:56.038Z,2.90
2022-09-06T00:48:25.858Z,2.90
2022-09-06T00:50:57.099Z,3.10
2022-09-06T00:53:25.636Z,2.57
2022-09-06T00:55:54.124Z,2.60
2022-09-06T00:58:22.296Z,2.30
2022-09-06T01:00:49.919Z,2.70
2022-09-06T01:03:19.037Z,3.33
2022-09-06T01:05:58.336Z,2.80
2022-09-06T01:08:37.798Z,3.10
2022-09-06T01:11:24.308Z,2.77
2022-09-06T01:14:01.029Z,2.80
2022-09-06T01:16:36.231Z,2.77
2022-09-06T01:19:56.208Z,3.50
2022-09-06T01:22:45.811Z,3.00
2022-09-06T01:25:35.663Z,3.40
2022-09-06T01:28:28.712Z,3.20
2022-09-06T01:31:05.656Z,3.57
2022-09-06T01:33:39.724Z,3.10
2022-09-06T01:36:10.941Z,2.90
2022-09-06T01:38:38.623Z,3.77
2022-09-06T01:41:06.459Z,3.17
2022-09-06T01:43:38.549Z,3.03
2022-09-06T01:46:15.897Z,3.87
2022-09-06T01:49:00.419Z,3.57
2022-09-06T01:51:32.129Z,3.60
2022-09-06T01:54:13.436Z,3.80
2022-09-06T01:56:50.527Z,3.60
2022-09-06T01:59:37.891Z,3.63
2022-09-06T02:02:12.543Z,3.20
2022-09-06T02:04:45.360Z,3.30
2022-09-06T02:07:18.911Z,3.53
2022-09-06T02:09:52.168Z,3.77
2022-09-06T02:12:22.331Z,3.17
2022-09-06T02:14:56.343Z,3.10
2022-09-06T02:17:28.894Z,3.67
2022-09-06T02:20:02.376Z,4.50
2022-09-06T02:22:34.373Z,4.23
2022-09-06T02:25:03.979Z,3.83
2022-09-06T02:27:31.611Z,3.10
2022-09-06T02:30:02.918Z,3.80
2022-09-06T02:32:33.632Z,3.67
2022-09-06T02:35:08.766Z,3.77
2022-09-06T02:37:36.792Z,4.13
2022-09-06T02:40:05.938Z,4.13
2022-09-06T02:42:34.052Z,4.27
2022-09-06T02:45:03.089Z,3.70
2022-09-06T02:47:30.982Z,4.03
2022-09-06T02:49:58.598Z,3.90
2022-09-06T02:52:26.218Z,4.40
2022-09-06T02:54:53.880Z,4.00
2022-09-06T02:57:21.475Z,3.97
2022-09-06T02:59:49.095Z,4.03
2022-09-06T03:02:18.189Z,3.70
2022-09-06T03:04:45.834Z,4.57
2022-09-06T03:07:13.552Z,4.20
2022-09-06T03:09:41.650Z,4.10
2022-09-06T03:12:09.575Z,3.90
2022-09-06T03:14:37.208Z,3.87
2022-09-06T03:17:05.041Z,3.70
2022-09-06T03:19:34.068Z,3.73
2022-09-06T03:22:01.688Z,3.60
2022-09-06T03:24:29.262Z,3.87
2022-09-06T03:26:56.898Z,4.10
2022-09-06T03:29:24.453Z,3.87
2022-09-06T03:31:52.384Z,4.37
2022-09-06T03:34:20.003Z,4.20
2022-09-06T03:36:48.943Z,3.20
2022-09-06T03:39:16.575Z,4.47
2022-09-06T03:41:44.225Z,4.17
2022-09-06T03:44:11.807Z,4.67
2022-09-06T03:46:39.570Z,3.97
2022-09-06T03:49:08.104Z,3.77
2022-09-06T03:51:35.720Z,4.37
2022-09-06T03:54:04.876Z,3.60
2022-09-06T03:56:32.679Z,4.70
2022-09-06T03:59:00.351Z,3.23
2022-09-06T04:01:28.238Z,4.03
2022-09-06T04:03:55.931Z,3.77
2022-09-06T04:06:23.518Z,4.37
2022-09-06T04:08:51.118Z,4.10
2022-09-06T04:11:20.110Z,4.23
2022-09-06T04:13:48.099Z,4.50
2022-09-06T04:16:17.500Z,5.30
2022-09-06T04:18:45.254Z,5.00
2022-09-06T04:21:12.899Z,4.70
2022-09-06T04:23:40.787Z,5.00
2022-09-06T04:26:08.632Z,4.23
2022-09-06T04:28:37.761Z,4.73
2022-09-06T04:31:05.943Z,5.03
2022-09-06T04:33:35.745Z,4.97
2022-09-06T04:36:05.737Z,4.70
2022-09-06T04:38:36.679Z,4.77
2022-09-06T04:41:04.737Z,4.57
2022-09-06T04:43:32.553Z,4.30
2022-09-06T04:46:06.282Z,4.50
2022-09-06T04:48:34.129Z,5.30
2022-09-06T04:51:01.771Z,4.20
2022-09-06T04:53:29.389Z,4.33
2022-09-06T04:55:58.061Z,4.10
2022-09-06T04:58:25.781Z,4.87
2022-09-06T05:00:53.682Z,4.53
2022-09-06T05:03:22.684Z,4.13
2022-09-06T05:05:50.253Z,4.10
2022-09-06T05:08:17.943Z,4.00
2022-09-06T05:10:45.563Z,4.10
2022-09-06T05:13:13.188Z,4.20
2022-09-06T05:15:40.821Z,4.10
2022-09-06T05:18:10.875Z,4.23
2022-09-06T05:20:42.344Z,3.50
2022-09-06T05:23:10.360Z,3.90
2022-09-06T05:25:38.025Z,3.67
2022-09-06T05:28:05.645Z,4.40
2022-09-06T05:30:33.238Z,3.90
2022-09-06T05:33:00.895Z,3.90
2022-09-06T05:35:28.515Z,4.67
2022-09-06T05:37:57.479Z,4.13
2022-09-06T05:40:25.099Z,4.10
2022-09-06T05:42:52.750Z,3.80
2022-09-06T05:45:20.479Z,3.40
2022-09-06T05:47:48.148Z,4.13
2022-09-06T05:50:16.011Z,3.60
2022-09-06T05:52:43.656Z,3.83
2022-09-06T05:55:12.708Z,3.47
2022-09-06T05:57:40.339Z,4.90
2022-09-06T06:00:11.991Z,3.60
2022-09-06T06:02:40.591Z,4.47
2022-09-06T06:05:09.258Z,3.53
2022-09-06T06:07:36.868Z,3.30
2022-09-06T06:10:05.082Z,3.10
2022-09-06T06:12:34.091Z,3.90
2022-09-06T06:15:01.784Z,4.77
2022-09-06T06:17:29.444Z,3.60
2022-09-06T06:19:58.240Z,3.37
2022-09-06T06:22:25.824Z,4.07
2022-09-06T06:24:53.453Z,3.50
2022-09-06T06:27:21.069Z,3.60
2022-09-06T06:29:50.527Z,4.33
2022-09-06T06:32:18.163Z,4.20
2022-09-06T06:34:45.826Z,3.87
2022-09-06T06:37:13.417Z,3.00
2022-09-06T06:39:41.177Z,3.70
2022-09-06T06:42:09.138Z,3.90
2022-09-06T06:44:53.245Z,3.03
2022-09-06T06:47:20.954Z,3.70
2022-09-06T06:49:49.083Z,4.00
2022-09-06T06:52:17.094Z,3.77
2022-09-06T06:54:44.874Z,3.53
2022-09-06T06:57:12.626Z,4.30
2022-09-06T06:59:40.600Z,3.17
2022-09-06T07:02:10.808Z,3.43
2022-09-06T07:04:38.534Z,3.70
2022-09-06T07:12:41.705Z,3.83
2022-09-06T07:15:10.331Z,2.43
2022-09-06T07:17:39.700Z,3.47
2022-09-06T07:20:27.016Z,2.70
2022-09-06T07:26:21.691Z,2.80
2022-09-06T07:29:09.017Z,3.00
2022-09-06T07:32:13.065Z,3.00
2022-09-06T07:35:01.023Z,2.73
2022-09-06T07:37:53.342Z,1.87
2022-09-06T07:40:39.696Z,2.40
2022-09-06T07:43:27.039Z,1.97
2022-09-06T07:46:15.399Z,2.07
2022-09-06T07:49:01.879Z,2.60
2022-09-06T07:51:49.696Z,1.83
2022-09-06T07:54:35.698Z,1.80
2022-09-06T07:57:21.896Z,1.90
2022-09-06T08:00:10.164Z,2.33
2022-09-06T08:02:57.952Z,1.30
2022-09-06T08:08:59.828Z,1.53
2022-09-06T08:11:46.490Z,2.20
2022-09-06T08:14:33.495Z,1.50
2022-09-06T08:17:20.047Z,1.80
2022-09-06T08:20:06.650Z,1.33
2022-09-06T08:22:52.752Z,2.07
2022-09-06T08:25:40.359Z,1.53
2022-09-06T08:28:28.936Z,1.50
2022-09-06T08:31:17.404Z,1.67
2022-09-06T08:34:04.798Z,1.57
2022-09-06T08:36:51.012Z,2.00
2022-09-06T08:39:37.204Z,1.47
2022-09-06T08:42:24.831Z,1.50
2022-09-06T08:45:19.967Z,1.40
2022-09-06T08:48:07.038Z,1.60
2022-09-06T08:51:06.635Z,1.43
2022-09-06T08:54:00.101Z,1.20
2022-09-06T08:57:03.050Z,1.07
2022-09-06T08:59:58.216Z,1.50
2022-09-06T09:02:46.946Z,1.10
2022-09-06T09:05:36.084Z,1.30
2022-09-06T09:08:28.633Z,1.10
2022-09-06T09:11:18.866Z,1.10
2022-09-06T09:14:09.861Z,1.27
2022-09-06T09:17:07.200Z,1.33
2022-09-06T09:19:53.361Z,1.50
2022-09-06T09:22:40.692Z,1.30
2022-09-06T09:25:33.748Z,1.10
2022-09-06T09:28:23.372Z,1.40
2022-09-06T09:31:10.160Z,1.20
2022-09-06T09:33:58.020Z,1.33
2022-09-06T09:39:53.750Z,1.30
2022-09-06T09:42:40.104Z,1.40
2022-09-06T09:45:30.107Z,1.30
2022-09-06T09:48:28.172Z,1.30
2022-09-06T09:51:26.975Z,1.60
2022-09-06T09:54:16.307Z,1.40
2022-09-06T09:57:07.261Z,1.30
2022-09-06T09:59:58.219Z,1.30
2022-09-06T10:02:44.581Z,1.20
2022-09-06T10:05:30.803Z,1.40
2022-09-06T10:08:18.399Z,1.40
2022-09-06T10:11:05.132Z,1.40
2022-09-06T10:14:10.670Z,1.70
2022-09-06T10:16:58.036Z,1.40
2022-09-06T10:19:46.188Z,1.43
2022-09-06T10:22:33.346Z,1.10
2022-09-06T10:25:37.919Z,1.30
2022-09-06T10:28:31.064Z,1.30
2022-09-06T10:31:43.365Z,1.47
2022-09-06T10:34:52.612Z,1.50
2022-09-06T10:38:07.654Z,1.60
2022-09-06T10:41:08.815Z,1.43
2022-09-06T10:44:03.638Z,1.43
2022-09-06T10:46:59.498Z,1.63
2022-09-06T10:49:50.271Z,0.93
2022-09-06T10:52:44.127Z,1.40
2022-09-06T10:55:32.498Z,1.60
2022-09-06T10:58:26.364Z,1.20
2022-09-06T11:01:23.641Z,1.20
2022-09-06T11:04:13.225Z,1.23
2022-09-06T11:07:05.148Z,1.20
2022-09-06T11:09:57.204Z,1.07
2022-09-06T11:12:50.207Z,1.43
2022-09-06T11:15:45.156Z,1.13
2022-09-06T11:18:37.684Z,1.27
2022-09-06T11:21:45.889Z,1.27
2022-09-06T11:24:51.478Z,1.40
2022-09-06T11:27:41.405Z,1.30
2022-09-06T11:30:30.089Z,1.40
2022-09-06T11:33:25.093Z,1.70
2022-09-06T11:36:29.479Z,1.30
2022-09-06T11:43:03.015Z,1.30
2022-09-06T11:45:50.955Z,1.40
2022-09-06T11:48:51.339Z,1.33
2022-09-06T11:51:39.274Z,1.33
2022-09-06T11:54:30.301Z,1.40
2022-09-06T11:57:22.096Z,1.70
2022-09-06T12:00:18.476Z,1.33
2022-09-06T12:06:19.071Z,1.60
2022-09-06T12:09:30.554Z,1.40
2022-09-06T12:12:41.019Z,1.20
2022-09-06T12:15:29.531Z,1.27
2022-09-06T12:18:55.009Z,1.70
2022-09-06T12:21:52.263Z,2.00
2022-09-06T12:24:57.004Z,2.00
2022-09-06T12:27:53.815Z,1.47
2022-09-06T12:30:42.998Z,2.00
2022-09-06T12:33:32.696Z,1.40
2022-09-06T12:36:21.454Z,1.70
2022-09-06T12:39:12.975Z,1.60
2022-09-06T12:42:03.319Z,1.50
2022-09-06T12:44:52.831Z,1.70
2022-09-06T12:47:41.028Z,1.50
2022-09-06T12:50:27.884Z,2.17
2022-09-06T12:53:24.443Z,1.90
2022-09-06T12:56:13.122Z,1.47
2022-09-06T12:59:17.073Z,2.20
2022-09-06T13:02:06.922Z,1.90
2022-09-06T13:05:01.240Z,2.20
2022-09-06T13:07:51.645Z,2.13
2022-09-06T13:10:42.601Z,2.17
2022-09-06T13:13:30.753Z,2.03
2022-09-06T13:16:23.100Z,1.60
2022-09-06T13:19:14.551Z,2.10
2022-09-06T13:22:02.292Z,1.70
2022-09-06T13:24:49.044Z,2.00
2022-09-06T13:27:37.531Z,2.00
2022-09-06T13:30:41.889Z,2.43
2022-09-06T13:33:28.332Z,2.10
2022-09-06T13:36:22.871Z,2.10
2022-09-06T13:39:08.995Z,2.13
2022-09-06T13:41:57.303Z,2.20
2022-09-06T13:44:44.057Z,2.20
2022-09-06T13:47:31.594Z,2.13
2022-09-06T13:50:18.137Z,2.50
2022-09-06T13:53:04.558Z,1.73
2022-09-06T13:55:52.224Z,2.00
2022-09-06T13:58:39.580Z,2.13
2022-09-06T14:01:26.387Z,2.30
2022-09-06T14:04:19.165Z,1.90
2022-09-06T14:07:06.448Z,2.40
2022-09-06T14:09:52.537Z,2.40
2022-09-06T14:12:38.760Z,2.60
2022-09-06T14:15:25.618Z,2.43
2022-09-06T14:18:14.483Z,2.40
2022-09-06T14:21:02.280Z,1.60
2022-09-06T14:23:51.446Z,2.20
2022-09-06T14:26:38.587Z,1.87
2022-09-06T14:29:24.936Z,1.77
2022-09-06T14:32:10.967Z,1.63
2022-09-06T14:34:57.496Z,1.60
2022-09-06T14:37:45.240Z,1.40
2022-09-06T14:40:35.948Z,1.70
2022-09-06T14:43:21.790Z,1.90
2022-09-06T14:46:10.649Z,1.70
2022-09-06T14:48:58.777Z,2.10
2022-09-06T14:51:45.848Z,2.33
2022-09-06T14:54:33.889Z,1.47
2022-09-06T14:57:20.478Z,1.83
2022-09-06T15:00:09.715Z,1.83
2022-09-06T15:02:56.272Z,2.60
2022-09-06T15:05:42.648Z,2.03
2022-09-06T15:08:28.855Z,1.73
2022-09-06T15:11:28.259Z,2.40
2022-09-06T15:14:16.667Z,2.07
2022-09-06T15:17:05.694Z,1.90
2022-09-06T15:19:51.920Z,2.10
2022-09-06T15:22:38.849Z,2.40
2022-09-06T15:25:25.127Z,1.53
2022-09-06T15:28:12.632Z,2.20
2022-09-06T15:30:59.584Z,2.20
2022-09-06T15:33:46.049Z,1.70
2022-09-06T15:36:33.296Z,2.07
2022-09-06T15:39:20.155Z,1.93
2022-09-06T15:42:07.054Z,1.87
2022-09-06T15:44:55.235Z,1.60
2022-09-06T15:47:42.007Z,1.33
2022-09-06T15:50:49.726Z,1.90
2022-09-06T15:53:34.803Z,2.33
2022-09-06T15:56:20.789Z,2.13
2022-09-06T15:59:07.444Z,2.17
2022-09-06T16:01:55.149Z,1.80
2022-09-06T16:04:41.418Z,2.03
2022-09-06T16:07:27.835Z,1.70
2022-09-06T16:10:13.950Z,2.60
2022-09-06T16:13:00.249Z,1.57
2022-09-06T16:15:56.761Z,2.10
2022-09-06T16:18:46.567Z,2.47
2022-09-06T16:21:36.823Z,2.17
2022-09-06T16:24:23.574Z,1.97
2022-09-06T16:27:10.170Z,1.80
2022-09-06T16:29:56.562Z,2.10
2022-09-06T16:32:43.128Z,1.90
2022-09-06T16:35:31.161Z,2.33
2022-09-06T16:38:17.745Z,2.40
2022-09-06T16:41:11.071Z,2.30
2022-09-06T16:43:57.116Z,2.30
2022-09-06T16:46:43.802Z,2.20
2022-09-06T16:49:30.016Z,1.97
2022-09-06T16:52:17.367Z,2.40
2022-09-06T16:55:03.783Z,1.90
2022-09-06T16:57:49.673Z,2.03
2022-09-06T17:00:35.787Z,2.30
2022-09-06T17:03:21.899Z,2.30
2022-09-06T17:06:08.770Z,2.00
2022-09-06T17:08:58.342Z,2.20
2022-09-06T17:11:44.881Z,3.23
2022-09-06T17:14:31.300Z,3.00
2022-09-06T17:17:17.942Z,2.93
2022-09-06T17:20:05.151Z,2.60
2022-09-06T17:22:51.817Z,3.07
2022-09-06T17:25:43.240Z,2.50
2022-09-06T17:28:30.021Z,1.97
2022-09-06T17:31:22.300Z,1.77
2022-09-06T17:34:11.819Z,2.33
2022-09-06T17:36:57.878Z,2.30
2022-09-06T17:39:43.946Z,2.30
2022-09-06T17:42:31.768Z,1.90
2022-09-06T17:45:17.978Z,2.30
2022-09-06T17:48:04.356Z,1.70
2022-09-06T17:50:50.513Z,1.70
2022-09-06T17:53:37.515Z,2.17
2022-09-06T17:56:23.636Z,2.30
2022-09-06T17:59:13.983Z,2.43
2022-09-06T18:02:00.299Z,2.87
2022-09-06T18:04:46.651Z,2.33
2022-09-06T18:07:33.027Z,2.17
2022-09-06T18:10:19.070Z,2.30
2022-09-06T18:13:05.774Z,2.87
2022-09-06T18:15:53.211Z,2.53
2022-09-06T18:18:39.506Z,2.40
2022-09-06T18:21:27.740Z,2.90
2022-09-06T18:24:14.579Z,2.40
2022-09-06T18:27:02.747Z,3.73
2022-09-06T18:29:49.326Z,2.80
2022-09-06T18:32:36.767Z,3.30
2022-09-06T18:35:23.463Z,3.47
2022-09-06T18:38:11.282Z,3.07
2022-09-06T18:40:58.602Z,3.37
2022-09-06T18:43:44.502Z,2.83
2022-09-06T18:46:31.265Z,3.33
2022-09-06T18:49:19.069Z,2.97
2022-09-06T18:52:06.873Z,3.17
2022-09-06T18:54:53.195Z,3.07
2022-09-06T18:57:39.425Z,3.30
2022-09-06T19:00:25.579Z,3.10
2022-09-06T19:03:11.637Z,3.47
2022-09-06T19:06:02.978Z,3.27
2022-09-06T19:08:49.834Z,3.23
2022-09-06T19:11:37.098Z,2.83
2022-09-06T19:14:23.222Z,3.13
2022-09-06T19:17:09.903Z,3.50
2022-09-06T19:19:55.801Z,3.80
2022-09-06T19:22:43.505Z,4.00
2022-09-06T19:25:29.853Z,4.70
2022-09-06T19:28:16.047Z,3.90
2022-09-06T19:31:07.180Z,3.00
2022-09-06T19:33:54.869Z,3.73
2022-09-06T19:36:40.758Z,3.60
2022-09-06T19:39:34.817Z,3.13
2022-09-06T19:42:22.931Z,3.50
2022-09-06T19:45:10.430Z,3.13
2022-09-06T19:47:56.648Z,3.70
2022-09-06T19:50:42.843Z,3.10
2022-09-06T19:53:29.063Z,3.50
2022-09-06T19:56:18.335Z,3.00
2022-09-06T19:59:05.887Z,3.20
2022-09-06T20:01:51.980Z,3.00
2022-09-06T20:04:38.798Z,3.10
2022-09-06T20:07:24.969Z,10.53
2022-09-06T20:10:11.116Z,4.07
2022-09-06T20:12:58.805Z,4.60
2022-09-06T20:15:45.252Z,3.50
2022-09-06T20:18:31.636Z,4.27
2022-09-06T20:21:18.838Z,4.33
2022-09-06T20:24:05.069Z,4.00
2022-09-06T20:26:52.224Z,4.33
2022-09-06T20:29:39.863Z,4.00
2022-09-06T20:32:26.192Z,3.83
2022-09-06T20:35:12.498Z,3.90
2022-09-06T20:37:58.685Z,3.37
2022-09-06T20:40:44.715Z,3.57
2022-09-06T20:43:33.642Z,4.00
2022-09-06T20:46:22.985Z,3.50
2022-09-06T20:49:09.308Z,3.30
2022-09-06T20:51:55.375Z,3.53
2022-09-06T20:54:41.624Z,4.00
2022-09-06T20:57:27.817Z,4.00
2022-09-06T21:00:15.300Z,3.30
2022-09-06T21:03:02.994Z,3.43
2022-09-06T21:05:49.463Z,3.37
2022-09-06T21:08:39.485Z,3.50
2022-09-06T21:11:29.861Z,2.80
2022-09-06T21:14:15.880Z,2.97
2022-09-06T21:17:02.047Z,3.03
2022-09-06T21:19:49.648Z,3.90
2022-09-06T21:22:35.905Z,3.07
2022-09-06T21:25:22.248Z,3.20
2022-09-06T21:28:08.696Z,3.00
2022-09-06T21:31:02.859Z,3.10
2022-09-06T21:33:53.070Z,2.93
2022-09-06T21:36:41.152Z,3.60
2022-09-06T21:39:27.159Z,3.20
2022-09-06T21:42:13.239Z,2.83
2022-09-06T21:44:59.364Z,2.80
2022-09-06T21:47:45.516Z,2.50
2022-09-06T21:50:33.715Z,2.10
2022-09-06T21:53:22.877Z,2.63
2022-09-06T21:56:09.268Z,1.97
2022-09-06T21:58:57.578Z,2.30
2022-09-06T22:01:45.264Z,2.13
2022-09-06T22:04:31.667Z,2.00
2022-09-06T22:07:17.798Z,1.73
2022-09-06T22:10:06.070Z,2.07
2022-09-06T22:12:52.385Z,1.60
2022-09-06T22:15:39.190Z,1.70
2022-09-06T22:18:25.661Z,1.50
2022-09-06T22:21:15.254Z,2.30
2022-09-06T22:24:02.913Z,1.90
2022-09-06T22:26:50.417Z,1.47
2022-09-06T22:29:36.743Z,1.83
2022-09-06T22:32:24.106Z,2.40
2022-09-06T22:35:11.147Z,2.00
2022-09-06T22:37:57.195Z,1.63
2022-09-06T22:40:43.652Z,1.90
2022-09-06T22:43:31.363Z,2.27
2022-09-06T22:46:17.886Z,1.47
2022-09-06T22:49:04.631Z,1.70
2022-09-06T22:51:50.850Z,1.60
2022-09-06T22:54:38.000Z,1.80
2022-09-06T22:57:23.998Z,2.30
2022-09-06T23:00:13.906Z,1.23
2022-09-06T23:02:59.919Z,1.97
2022-09-06T23:05:46.232Z,1.67
2022-09-06T23:08:33.606Z,1.60
2022-09-06T23:11:20.173Z,1.80
2022-09-06T23:14:06.649Z,1.90
2022-09-06T23:16:53.945Z,1.70
2022-09-06T23:19:40.207Z,1.67
2022-09-06T23:22:26.585Z,1.50
2022-09-06T23:25:12.825Z,1.50
2022-09-06T23:28:00.147Z,1.83
2022-09-06T23:30:46.325Z,1.87
2022-09-06T23:33:36.061Z,1.40
2022-09-06T23:36:22.648Z,1.23
2022-09-06T23:39:09.083Z,1.50
2022-09-06T23:41:55.162Z,1.97
2022-09-06T23:44:41.534Z,2.70
2022-09-06T23:47:27.634Z,1.70
2022-09-06T23:50:15.317Z,2.53
2022-09-06T23:53:01.304Z,2.20
2022-09-06T23:55:47.957Z,1.20
2022-09-06T23:58:34.362Z,1.00
